AFL1040 UUEE-URSS
Flight info
| Callsign | AFL1040 |
|---|---|
| Flight time | N/A |
| Altitude | 35000 |
| Route | TOGMO3J TOGMO M56 ABAGI B105 NIMTA/K0824F340 B105 NATIT/K0830F350 DCT MOLED N50 LIDUS/K0841F360 G242 ZG/K0841F350 DCT ITAKA/K0848F360 DCT OBBUD DCT AMKOL DCT GOTIK DCT MEMZA DCT VENFO DCT BINOL BINOL1K |
| Aircraft | A321/M-SDE3FGHIRWY/LB1 |
Departure
| Time | 2026-05-05 07:32 |
|---|---|
| Airport | Sheremetyevo International Airport (UUEE) |
Arrival
| Time | N/A |
|---|---|
| Airport | Sochi International Airport (URSS) |
| Time | Latitude | Longitude | Altitude | Speed | Heading |
|---|---|---|---|---|---|
| 2026-05-05 07:04 | 55.97882 | 37.41925 | 639 ft | 0 kts | 255° |
| 2026-05-05 07:24 | 55.97882 | 37.41929 | 639 ft | 2 kts | 255° |
| 2026-05-05 07:25 | 55.97889 | 37.41973 | 639 ft | 4 kts | 255° |
| 2026-05-05 07:25 | 55.97895 | 37.42010 | 643 ft | 4 kts | 258° |
| 2026-05-05 07:25 | 55.97895 | 37.42040 | 646 ft | 4 kts | 341° |
| 2026-05-05 07:25 | 55.97876 | 37.42050 | 643 ft | 4 kts | 323° |
| 2026-05-05 07:26 | 55.97868 | 37.42081 | 639 ft | 4 kts | 253° |
| 2026-05-05 07:26 | 55.97877 | 37.42125 | 639 ft | 4 kts | 250° |
| 2026-05-05 07:26 | 55.97880 | 37.42140 | 639 ft | 0 kts | 255° |
| 2026-05-05 07:28 | 55.97869 | 37.42095 | 643 ft | 8 kts | 237° |
| 2026-05-05 07:28 | 55.97791 | 37.42090 | 646 ft | 15 kts | 166° |
| 2026-05-05 07:28 | 55.97699 | 37.42158 | 641 ft | 14 kts | 130° |
| 2026-05-05 07:29 | 55.97703 | 37.42307 | 639 ft | 11 kts | 76° |
| 2026-05-05 07:29 | 55.97721 | 37.42432 | 647 ft | 10 kts | 75° |
| 2026-05-05 07:29 | 55.97740 | 37.42559 | 642 ft | 14 kts | 75° |
| 2026-05-05 07:29 | 55.97763 | 37.42720 | 645 ft | 12 kts | 84° |
| 2026-05-05 07:30 | 55.97736 | 37.42789 | 639 ft | 0 kts | 160° |
| 2026-05-05 07:30 | 55.97717 | 37.42802 | 641 ft | 8 kts | 160° |
| 2026-05-05 07:31 | 55.97653 | 37.42833 | 638 ft | 10 kts | 170° |
| 2026-05-05 07:31 | 55.97601 | 37.42795 | 639 ft | 7 kts | 241° |
| 2026-05-05 07:31 | 55.97600 | 37.42789 | 639 ft | 2 kts | 250° |
| 2026-05-05 07:31 | 55.97532 | 37.42360 | 643 ft | 72 kts | 256° |
| 2026-05-05 07:32 | 55.97353 | 37.41147 | 642 ft | 127 kts | 255° |
| 2026-05-05 07:32 | 55.97077 | 37.39360 | 689 ft | 166 kts | 255° |
| 2026-05-05 07:32 | 55.96775 | 37.37445 | 1375 ft | 158 kts | 253° |
| 2026-05-05 07:32 | 55.96481 | 37.35575 | 1885 ft | 161 kts | 256° |
| 2026-05-05 07:33 | 55.96353 | 37.33502 | 2063 ft | 179 kts | 281° |
| 2026-05-05 07:33 | 55.97016 | 37.31497 | 2194 ft | 202 kts | 316° |
| 2026-05-05 07:33 | 55.98375 | 37.30502 | 2330 ft | 230 kts | 355° |
| 2026-05-05 07:33 | 55.99977 | 37.31392 | 2544 ft | 260 kts | 35° |
| 2026-05-05 07:34 | 56.01049 | 37.34067 | 3101 ft | 276 kts | 73° |
| 2026-05-05 07:34 | 56.01096 | 37.37507 | 3763 ft | 284 kts | 107° |
| 2026-05-05 07:34 | 56.00146 | 37.40592 | 4478 ft | 286 kts | 133° |
| 2026-05-05 07:34 | 55.98793 | 37.43204 | 5205 ft | 288 kts | 139° |
| 2026-05-05 07:35 | 55.97381 | 37.45697 | 5910 ft | 291 kts | 139° |
| 2026-05-05 07:35 | 55.95930 | 37.48253 | 6608 ft | 295 kts | 139° |
| 2026-05-05 07:35 | 55.94506 | 37.50923 | 7287 ft | 301 kts | 128° |
| 2026-05-05 07:35 | 55.93649 | 37.54369 | 7935 ft | 311 kts | 103° |
| 2026-05-05 07:36 | 55.93323 | 37.58201 | 8615 ft | 314 kts | 99° |
| 2026-05-05 07:36 | 55.92975 | 37.62060 | 9310 ft | 317 kts | 101° |
| 2026-05-05 07:36 | 55.92580 | 37.65938 | 9977 ft | 320 kts | 102° |
| 2026-05-05 07:36 | 55.92152 | 37.69901 | 10331 ft | 333 kts | 102° |
| 2026-05-05 07:37 | 55.91570 | 37.73943 | 10814 ft | 339 kts | 112° |
| 2026-05-05 07:37 | 55.90565 | 37.77693 | 11386 ft | 341 kts | 122° |
| 2026-05-05 07:37 | 55.89393 | 37.81397 | 12025 ft | 344 kts | 122° |
| 2026-05-05 07:37 | 55.88221 | 37.85137 | 12660 ft | 347 kts | 121° |
| 2026-05-05 07:38 | 55.87039 | 37.88915 | 13289 ft | 351 kts | 121° |
| 2026-05-05 07:38 | 55.85850 | 37.92727 | 13860 ft | 354 kts | 121° |
| 2026-05-05 07:38 | 55.84648 | 37.96575 | 14396 ft | 357 kts | 123° |
| 2026-05-05 07:38 | 55.83139 | 38.00049 | 14921 ft | 355 kts | 141° |
| 2026-05-05 07:39 | 55.81124 | 38.02504 | 15447 ft | 350 kts | 160° |
| 2026-05-05 07:39 | 55.78848 | 38.03687 | 15972 ft | 344 kts | 178° |
| 2026-05-05 07:39 | 55.76483 | 38.03597 | 16505 ft | 338 kts | 195° |
| 2026-05-05 07:39 | 55.74276 | 38.02295 | 17031 ft | 333 kts | 212° |
| 2026-05-05 07:40 | 55.72399 | 37.99944 | 17562 ft | 330 kts | 227° |
| 2026-05-05 07:40 | 55.70776 | 37.97060 | 18113 ft | 332 kts | 228° |
| 2026-05-05 07:40 | 55.69145 | 37.94149 | 18603 ft | 334 kts | 228° |
| 2026-05-05 07:40 | 55.67468 | 37.91273 | 19053 ft | 339 kts | 222° |
| 2026-05-05 07:41 | 55.65493 | 37.89040 | 19522 ft | 346 kts | 208° |
| 2026-05-05 07:41 | 55.63169 | 37.87697 | 19837 ft | 361 kts | 194° |
| 2026-05-05 07:41 | 55.60602 | 37.87483 | 19966 ft | 380 kts | 179° |
| 2026-05-05 07:41 | 55.57932 | 37.87950 | 20108 ft | 392 kts | 178° |
| 2026-05-05 07:42 | 55.55188 | 37.88428 | 20327 ft | 399 kts | 178° |
| 2026-05-05 07:42 | 55.52408 | 37.88902 | 20725 ft | 403 kts | 178° |
| 2026-05-05 07:42 | 55.49603 | 37.89370 | 21133 ft | 406 kts | 178° |
| 2026-05-05 07:42 | 55.46783 | 37.89837 | 21555 ft | 408 kts | 178° |
| 2026-05-05 07:43 | 55.43986 | 37.90301 | 21957 ft | 411 kts | 178° |
| 2026-05-05 07:43 | 55.41131 | 37.90944 | 22364 ft | 416 kts | 171° |
| 2026-05-05 07:43 | 55.38339 | 37.92430 | 22770 ft | 424 kts | 160° |
| 2026-05-05 07:43 | 55.35708 | 37.94832 | 23134 ft | 430 kts | 149° |
| 2026-05-05 07:44 | 55.33218 | 37.97786 | 23515 ft | 433 kts | 149° |
| 2026-05-05 07:44 | 55.30716 | 38.00750 | 23856 ft | 435 kts | 149° |
| 2026-05-05 07:44 | 55.28197 | 38.03715 | 24182 ft | 437 kts | 149° |
| 2026-05-05 07:44 | 55.25669 | 38.06679 | 24541 ft | 438 kts | 149° |
| 2026-05-05 07:45 | 55.23166 | 38.09600 | 24883 ft | 439 kts | 149° |
| 2026-05-05 07:45 | 55.20617 | 38.12569 | 25204 ft | 441 kts | 149° |
| 2026-05-05 07:45 | 55.18060 | 38.15549 | 25547 ft | 442 kts | 149° |
| 2026-05-05 07:45 | 55.15494 | 38.18540 | 25878 ft | 444 kts | 149° |
| 2026-05-05 07:46 | 55.12919 | 38.21544 | 26187 ft | 446 kts | 149° |
| 2026-05-05 07:46 | 55.10335 | 38.24557 | 26504 ft | 448 kts | 149° |
| 2026-05-05 07:46 | 55.07738 | 38.27583 | 26806 ft | 449 kts | 149° |
| 2026-05-05 07:46 | 55.05129 | 38.30613 | 27114 ft | 451 kts | 149° |
| 2026-05-05 07:47 | 55.02511 | 38.33643 | 27412 ft | 453 kts | 149° |
| 2026-05-05 07:47 | 54.99917 | 38.36637 | 27723 ft | 454 kts | 149° |
| 2026-05-05 07:47 | 54.97278 | 38.39680 | 28022 ft | 456 kts | 149° |
| 2026-05-05 07:47 | 54.94630 | 38.42733 | 28304 ft | 457 kts | 149° |
| 2026-05-05 07:48 | 54.91974 | 38.45795 | 28578 ft | 459 kts | 149° |
| 2026-05-05 07:48 | 54.89305 | 38.48861 | 28842 ft | 461 kts | 149° |
| 2026-05-05 07:48 | 54.86626 | 38.51927 | 29107 ft | 462 kts | 150° |
| 2026-05-05 07:48 | 54.83933 | 38.55000 | 29380 ft | 464 kts | 150° |
| 2026-05-05 07:49 | 54.81235 | 38.58076 | 29635 ft | 465 kts | 150° |
| 2026-05-05 07:49 | 54.78562 | 38.61126 | 29955 ft | 465 kts | 149° |
| 2026-05-05 07:49 | 54.75865 | 38.64196 | 30302 ft | 464 kts | 150° |
| 2026-05-05 07:49 | 54.73064 | 38.67271 | 30625 ft | 463 kts | 151° |
| 2026-05-05 07:50 | 54.70313 | 38.70159 | 30940 ft | 462 kts | 152° |
| 2026-05-05 07:50 | 54.67553 | 38.72980 | 31259 ft | 461 kts | 153° |
| 2026-05-05 07:50 | 54.64785 | 38.75778 | 31565 ft | 461 kts | 153° |
| 2026-05-05 07:50 | 54.62019 | 38.78581 | 31878 ft | 460 kts | 152° |
| 2026-05-05 07:51 | 54.59303 | 38.81359 | 32171 ft | 460 kts | 152° |
| 2026-05-05 07:51 | 54.56558 | 38.84194 | 32481 ft | 460 kts | 152° |
| 2026-05-05 07:51 | 54.53821 | 38.87036 | 32790 ft | 459 kts | 151° |
| 2026-05-05 07:51 | 54.51088 | 38.89881 | 33121 ft | 458 kts | 151° |
| 2026-05-05 07:52 | 54.48361 | 38.92713 | 33439 ft | 458 kts | 151° |
| 2026-05-05 07:52 | 54.45633 | 38.95537 | 33745 ft | 457 kts | 151° |
| 2026-05-05 07:52 | 54.42949 | 38.98458 | 34020 ft | 458 kts | 145° |
| 2026-05-05 07:52 | 54.40526 | 39.02015 | 34266 ft | 459 kts | 135° |
| 2026-05-05 07:53 | 54.38473 | 39.06223 | 34508 ft | 461 kts | 126° |
| 2026-05-05 07:53 | 54.36871 | 39.10904 | 34742 ft | 462 kts | 116° |
| 2026-05-05 07:53 | 54.35622 | 39.15989 | 34877 ft | 463 kts | 113° |
| 2026-05-05 07:53 | 54.34409 | 39.21084 | 34902 ft | 460 kts | 113° |
| 2026-05-05 07:54 | 54.31980 | 39.31135 | 34905 ft | 453 kts | 114° |
| 2026-05-05 07:54 | 54.29539 | 39.41126 | 34911 ft | 456 kts | 113° |
| 2026-05-05 07:55 | 54.27107 | 39.51075 | 34913 ft | 456 kts | 113° |
| 2026-05-05 07:55 | 54.24657 | 39.61078 | 34911 ft | 456 kts | 114° |
| 2026-05-05 07:56 | 54.22203 | 39.71070 | 34906 ft | 456 kts | 114° |
| 2026-05-05 07:56 | 54.19740 | 39.81043 | 34910 ft | 456 kts | 114° |
| 2026-05-05 07:57 | 54.17260 | 39.91004 | 34910 ft | 456 kts | 114° |
| 2026-05-05 07:57 | 54.14794 | 40.00893 | 34911 ft | 456 kts | 114° |
| 2026-05-05 07:58 | 54.12298 | 40.10835 | 34911 ft | 456 kts | 114° |
| 2026-05-05 07:58 | 54.10343 | 40.21134 | 34910 ft | 456 kts | 107° |
| 2026-05-05 07:59 | 54.08557 | 40.31502 | 34915 ft | 456 kts | 107° |
| 2026-05-05 07:59 | 54.06769 | 40.41777 | 34921 ft | 455 kts | 107° |
| 2026-05-05 08:00 | 54.04957 | 40.52106 | 34919 ft | 455 kts | 107° |
| 2026-05-05 08:00 | 54.03136 | 40.62417 | 34926 ft | 455 kts | 107° |
| 2026-05-05 08:01 | 54.01313 | 40.72719 | 34919 ft | 455 kts | 107° |
| 2026-05-05 08:01 | 53.99486 | 40.82933 | 34927 ft | 455 kts | 107° |
| 2026-05-05 08:02 | 53.97640 | 40.93218 | 34931 ft | 455 kts | 107° |
| 2026-05-05 08:02 | 53.95791 | 41.03484 | 34932 ft | 454 kts | 107° |
| 2026-05-05 08:03 | 53.94029 | 41.13781 | 34925 ft | 454 kts | 105° |
| 2026-05-05 08:03 | 53.92393 | 41.24057 | 34932 ft | 454 kts | 105° |
| 2026-05-05 08:04 | 53.90726 | 41.34380 | 34940 ft | 453 kts | 105° |
| 2026-05-05 08:04 | 53.89018 | 41.44672 | 34948 ft | 453 kts | 106° |
| 2026-05-05 08:05 | 53.87284 | 41.54942 | 34936 ft | 453 kts | 106° |
| 2026-05-05 08:05 | 53.85563 | 41.65142 | 34944 ft | 453 kts | 106° |
| 2026-05-05 08:06 | 53.83831 | 41.75409 | 34945 ft | 453 kts | 106° |
| 2026-05-05 08:06 | 53.82095 | 41.85657 | 34944 ft | 453 kts | 107° |
| 2026-05-05 08:07 | 53.80335 | 41.95875 | 34947 ft | 452 kts | 107° |
| 2026-05-05 08:07 | 53.78579 | 42.06014 | 34948 ft | 452 kts | 107° |
| 2026-05-05 08:08 | 53.76799 | 42.16203 | 34952 ft | 452 kts | 107° |
| 2026-05-05 08:08 | 53.75014 | 42.26398 | 34951 ft | 452 kts | 107° |
| 2026-05-05 08:09 | 53.73227 | 42.36577 | 34964 ft | 452 kts | 107° |
| 2026-05-05 08:09 | 53.71445 | 42.46672 | 34967 ft | 451 kts | 107° |
| 2026-05-05 08:10 | 53.69585 | 42.56772 | 34962 ft | 450 kts | 112° |
| 2026-05-05 08:10 | 53.68192 | 42.61480 | 34963 ft | 449 kts | 123° |
| 2026-05-05 08:10 | 53.66328 | 42.65680 | 34962 ft | 447 kts | 134° |
| 2026-05-05 08:11 | 53.61519 | 42.72036 | 34957 ft | 442 kts | 154° |
| 2026-05-05 08:11 | 53.55898 | 42.76207 | 34967 ft | 441 kts | 158° |
| 2026-05-05 08:12 | 53.50259 | 42.80276 | 34972 ft | 441 kts | 157° |
| 2026-05-05 08:12 | 53.44622 | 42.84343 | 34978 ft | 441 kts | 157° |
| 2026-05-05 08:13 | 53.38984 | 42.88379 | 34972 ft | 440 kts | 158° |
| 2026-05-05 08:13 | 53.33391 | 42.92384 | 34974 ft | 440 kts | 158° |
| 2026-05-05 08:14 | 53.27759 | 42.96403 | 34964 ft | 440 kts | 158° |
| 2026-05-05 08:14 | 53.22119 | 43.00403 | 34968 ft | 440 kts | 158° |
| 2026-05-05 08:15 | 53.16475 | 43.04387 | 34970 ft | 441 kts | 158° |
| 2026-05-05 08:15 | 53.10835 | 43.08411 | 34978 ft | 441 kts | 156° |
| 2026-05-05 08:16 | 53.05278 | 43.12559 | 34972 ft | 441 kts | 156° |
| 2026-05-05 08:16 | 52.99691 | 43.16775 | 34978 ft | 441 kts | 156° |
| 2026-05-05 08:17 | 52.94088 | 43.20952 | 34977 ft | 442 kts | 156° |
| 2026-05-05 08:17 | 52.88468 | 43.25084 | 34980 ft | 442 kts | 156° |
| 2026-05-05 08:18 | 52.82886 | 43.29177 | 34979 ft | 442 kts | 156° |
| 2026-05-05 08:18 | 52.77265 | 43.33296 | 34977 ft | 442 kts | 156° |
| 2026-05-05 08:19 | 52.71635 | 43.37422 | 34978 ft | 443 kts | 156° |
| 2026-05-05 08:19 | 52.66002 | 43.41533 | 34979 ft | 443 kts | 156° |
| 2026-05-05 08:20 | 52.60406 | 43.45610 | 34986 ft | 443 kts | 156° |
| 2026-05-05 08:20 | 52.54773 | 43.49697 | 34985 ft | 442 kts | 156° |
| 2026-05-05 08:21 | 52.49142 | 43.53774 | 34987 ft | 442 kts | 156° |
| 2026-05-05 08:21 | 52.43501 | 43.57833 | 34988 ft | 443 kts | 156° |
| 2026-05-05 08:22 | 52.37858 | 43.61892 | 34992 ft | 443 kts | 156° |
| 2026-05-05 08:22 | 52.32251 | 43.65917 | 34996 ft | 443 kts | 156° |
| 2026-05-05 08:23 | 52.26604 | 43.69956 | 34993 ft | 443 kts | 156° |
| 2026-05-05 08:23 | 52.20951 | 43.73982 | 34995 ft | 443 kts | 156° |
| 2026-05-05 08:24 | 52.15297 | 43.78004 | 34990 ft | 443 kts | 156° |
| 2026-05-05 08:24 | 52.09681 | 43.81998 | 34990 ft | 443 kts | 156° |
| 2026-05-05 08:25 | 52.04026 | 43.86001 | 34990 ft | 444 kts | 156° |
| 2026-05-05 08:25 | 51.98360 | 43.89992 | 34995 ft | 444 kts | 156° |
| 2026-05-05 08:26 | 51.92683 | 43.93981 | 34998 ft | 445 kts | 156° |
| 2026-05-05 08:26 | 51.87045 | 43.97941 | 35000 ft | 445 kts | 156° |
| 2026-05-05 08:27 | 51.81361 | 44.01913 | 35004 ft | 445 kts | 156° |
| 2026-05-05 08:27 | 51.75674 | 44.05876 | 35006 ft | 445 kts | 156° |
| 2026-05-05 08:28 | 51.69986 | 44.09844 | 35015 ft | 445 kts | 156° |
| 2026-05-05 08:28 | 51.64298 | 44.13805 | 35018 ft | 445 kts | 156° |
| 2026-05-05 08:29 | 51.58639 | 44.17710 | 35022 ft | 446 kts | 156° |
| 2026-05-05 08:30 | 51.50098 | 44.23592 | 35025 ft | 445 kts | 156° |
| 2026-05-05 08:30 | 51.44418 | 44.27495 | 35025 ft | 444 kts | 156° |
| 2026-05-05 08:31 | 51.38744 | 44.31389 | 35021 ft | 444 kts | 156° |
| 2026-05-05 08:31 | 51.33112 | 44.35244 | 35017 ft | 443 kts | 156° |
| 2026-05-05 08:32 | 51.27438 | 44.39118 | 35015 ft | 443 kts | 156° |
| 2026-05-05 08:32 | 51.21765 | 44.42975 | 35019 ft | 443 kts | 156° |
| 2026-05-05 08:33 | 51.15938 | 44.46080 | 35019 ft | 443 kts | 171° |
| 2026-05-05 08:33 | 51.09801 | 44.46344 | 35017 ft | 442 kts | 183° |
| 2026-05-05 08:34 | 51.03694 | 44.45754 | 35013 ft | 443 kts | 183° |
| 2026-05-05 08:34 | 50.97550 | 44.45175 | 35013 ft | 442 kts | 183° |
| 2026-05-05 08:35 | 50.91412 | 44.44615 | 35022 ft | 441 kts | 183° |
| 2026-05-05 08:35 | 50.85280 | 44.44047 | 35022 ft | 441 kts | 183° |
| 2026-05-05 08:36 | 50.79193 | 44.43484 | 35026 ft | 441 kts | 183° |
| 2026-05-05 08:36 | 50.73062 | 44.42927 | 35025 ft | 441 kts | 183° |
| 2026-05-05 08:37 | 50.66935 | 44.42357 | 35026 ft | 441 kts | 183° |
| 2026-05-05 08:37 | 50.60804 | 44.41789 | 35024 ft | 442 kts | 183° |
| 2026-05-05 08:38 | 50.54671 | 44.41223 | 35027 ft | 441 kts | 183° |
| 2026-05-05 08:38 | 50.48581 | 44.40656 | 35026 ft | 442 kts | 183° |
| 2026-05-05 08:39 | 50.42444 | 44.40099 | 35027 ft | 442 kts | 183° |
| 2026-05-05 08:39 | 50.36311 | 44.39544 | 35030 ft | 441 kts | 183° |
| 2026-05-05 08:40 | 50.30183 | 44.38982 | 35026 ft | 441 kts | 183° |
| 2026-05-05 08:40 | 50.24089 | 44.38428 | 35026 ft | 442 kts | 183° |
| 2026-05-05 08:41 | 50.17950 | 44.37874 | 35022 ft | 442 kts | 183° |
| 2026-05-05 08:41 | 50.11811 | 44.37312 | 35020 ft | 442 kts | 183° |
| 2026-05-05 08:42 | 50.05671 | 44.36759 | 35019 ft | 442 kts | 183° |
| 2026-05-05 08:42 | 49.99576 | 44.36220 | 35012 ft | 442 kts | 183° |
| 2026-05-05 08:43 | 49.93435 | 44.35672 | 35014 ft | 443 kts | 182° |
| 2026-05-05 08:43 | 49.87283 | 44.35124 | 35015 ft | 443 kts | 182° |
| 2026-05-05 08:44 | 49.81128 | 44.34568 | 35012 ft | 443 kts | 183° |
| 2026-05-05 08:44 | 49.75014 | 44.34012 | 35012 ft | 443 kts | 182° |
| 2026-05-05 08:45 | 49.68853 | 44.33468 | 35016 ft | 444 kts | 182° |
| 2026-05-05 08:45 | 49.62685 | 44.32936 | 35019 ft | 444 kts | 182° |
| 2026-05-05 08:46 | 49.56536 | 44.33273 | 35021 ft | 442 kts | 168° |
| 2026-05-05 08:46 | 49.50731 | 44.36312 | 35020 ft | 441 kts | 157° |
| 2026-05-05 08:47 | 49.45098 | 44.39915 | 35020 ft | 442 kts | 157° |
| 2026-05-05 08:47 | 49.39415 | 44.43508 | 35015 ft | 442 kts | 157° |
| 2026-05-05 08:48 | 49.33728 | 44.47106 | 35020 ft | 442 kts | 156° |
| 2026-05-05 08:48 | 49.28040 | 44.50698 | 35028 ft | 442 kts | 157° |
| 2026-05-05 08:49 | 49.22390 | 44.54255 | 35026 ft | 442 kts | 156° |
| 2026-05-05 08:49 | 49.16714 | 44.57829 | 35020 ft | 441 kts | 156° |
| 2026-05-05 08:50 | 49.11031 | 44.61403 | 35019 ft | 441 kts | 156° |
| 2026-05-05 08:50 | 49.05348 | 44.64952 | 35020 ft | 442 kts | 156° |
| 2026-05-05 08:51 | 48.99696 | 44.68472 | 35021 ft | 442 kts | 156° |
| 2026-05-05 08:51 | 48.94011 | 44.72015 | 35026 ft | 441 kts | 156° |
| 2026-05-05 08:52 | 48.88323 | 44.75543 | 35027 ft | 441 kts | 156° |
| 2026-05-05 08:52 | 48.82827 | 44.79559 | 35031 ft | 436 kts | 144° |
| 2026-05-05 08:53 | 48.78070 | 44.85123 | 35025 ft | 435 kts | 140° |
| 2026-05-05 08:53 | 48.73305 | 44.90778 | 35021 ft | 435 kts | 140° |
| 2026-05-05 08:54 | 48.68532 | 44.96405 | 35031 ft | 434 kts | 140° |
| 2026-05-05 08:54 | 48.63769 | 45.02010 | 35027 ft | 433 kts | 140° |
| 2026-05-05 08:55 | 48.59044 | 45.07564 | 35020 ft | 433 kts | 140° |
| 2026-05-05 08:55 | 48.54293 | 45.13138 | 35020 ft | 433 kts | 140° |
| 2026-05-05 08:56 | 48.49540 | 45.18711 | 35029 ft | 433 kts | 140° |
| 2026-05-05 08:56 | 48.44788 | 45.24263 | 35026 ft | 432 kts | 140° |
| 2026-05-05 08:57 | 48.40001 | 45.29617 | 35022 ft | 433 kts | 147° |
| 2026-05-05 08:57 | 48.34627 | 45.33714 | 35017 ft | 433 kts | 152° |
| 2026-05-05 08:58 | 48.29210 | 45.37693 | 35012 ft | 433 kts | 152° |
| 2026-05-05 08:58 | 48.23788 | 45.41660 | 35017 ft | 434 kts | 152° |
| 2026-05-05 08:59 | 48.18403 | 45.45595 | 35012 ft | 433 kts | 152° |
| 2026-05-05 08:59 | 48.12983 | 45.49545 | 35009 ft | 433 kts | 152° |
| 2026-05-05 09:00 | 48.07564 | 45.53479 | 35008 ft | 433 kts | 152° |
| 2026-05-05 09:00 | 48.02153 | 45.57423 | 35009 ft | 433 kts | 152° |
| 2026-05-05 09:01 | 47.96785 | 45.61329 | 35006 ft | 432 kts | 152° |
| 2026-05-05 09:01 | 47.91381 | 45.65245 | 35002 ft | 432 kts | 152° |
| 2026-05-05 09:02 | 47.85970 | 45.69145 | 35006 ft | 432 kts | 153° |
| 2026-05-05 09:02 | 47.80565 | 45.73031 | 35004 ft | 431 kts | 153° |
| 2026-05-05 09:03 | 47.75199 | 45.76877 | 35009 ft | 431 kts | 152° |
| 2026-05-05 09:03 | 47.69785 | 45.80750 | 35002 ft | 432 kts | 153° |
| 2026-05-05 09:04 | 47.64378 | 45.84614 | 35000 ft | 431 kts | 152° |
| 2026-05-05 09:04 | 47.58974 | 45.88474 | 34999 ft | 431 kts | 153° |
| 2026-05-05 09:05 | 47.53607 | 45.92297 | 34998 ft | 431 kts | 153° |
| 2026-05-05 09:05 | 47.48199 | 45.96127 | 34996 ft | 431 kts | 153° |
| 2026-05-05 09:06 | 47.42796 | 45.99954 | 34987 ft | 431 kts | 153° |
| 2026-05-05 09:06 | 47.37398 | 46.03767 | 34978 ft | 430 kts | 153° |
| 2026-05-05 09:07 | 47.32038 | 46.07555 | 34976 ft | 430 kts | 153° |
| 2026-05-05 09:07 | 47.26649 | 46.11368 | 34988 ft | 430 kts | 152° |
| 2026-05-05 09:08 | 47.21251 | 46.15181 | 34976 ft | 430 kts | 153° |
| 2026-05-05 09:08 | 47.15846 | 46.18977 | 34972 ft | 431 kts | 153° |
| 2026-05-05 09:09 | 47.10473 | 46.22739 | 34964 ft | 431 kts | 153° |
| 2026-05-05 09:09 | 47.05417 | 46.27345 | 34960 ft | 427 kts | 137° |
| 2026-05-05 09:10 | 47.01658 | 46.34015 | 34962 ft | 425 kts | 122° |
| 2026-05-05 09:10 | 46.98496 | 46.41350 | 34952 ft | 426 kts | 122° |
| 2026-05-05 09:11 | 46.95306 | 46.48662 | 34949 ft | 426 kts | 122° |
| 2026-05-05 09:11 | 46.92135 | 46.55910 | 34948 ft | 426 kts | 122° |
| 2026-05-05 09:12 | 46.88934 | 46.63197 | 34943 ft | 426 kts | 123° |
| 2026-05-05 09:12 | 46.85736 | 46.70491 | 34944 ft | 426 kts | 122° |
| 2026-05-05 09:13 | 46.82536 | 46.77774 | 34935 ft | 426 kts | 123° |
| 2026-05-05 09:13 | 46.79349 | 46.84994 | 34935 ft | 426 kts | 123° |
| 2026-05-05 09:14 | 46.76136 | 46.92259 | 34929 ft | 426 kts | 123° |
| 2026-05-05 09:14 | 46.72913 | 46.99520 | 34927 ft | 427 kts | 123° |
| 2026-05-05 09:15 | 46.69681 | 47.06778 | 34927 ft | 427 kts | 123° |
| 2026-05-05 09:15 | 46.66500 | 47.14022 | 34926 ft | 428 kts | 122° |
| 2026-05-05 09:16 | 46.63329 | 47.21348 | 34923 ft | 428 kts | 122° |
| 2026-05-05 09:16 | 46.60145 | 47.28667 | 34910 ft | 428 kts | 123° |
| 2026-05-05 09:17 | 46.56944 | 47.35975 | 34908 ft | 429 kts | 123° |
| 2026-05-05 09:17 | 46.53756 | 47.43240 | 34916 ft | 429 kts | 123° |
| 2026-05-05 09:18 | 46.50536 | 47.50547 | 34914 ft | 430 kts | 123° |
| 2026-05-05 09:18 | 46.47307 | 47.57849 | 34916 ft | 431 kts | 124° |
| 2026-05-05 09:19 | 46.44064 | 47.65159 | 34915 ft | 431 kts | 124° |
| 2026-05-05 09:19 | 46.40845 | 47.72417 | 34909 ft | 431 kts | 124° |
| 2026-05-05 09:20 | 46.37597 | 47.79733 | 34908 ft | 432 kts | 124° |
| 2026-05-05 09:20 | 46.34335 | 47.87040 | 34910 ft | 432 kts | 124° |
| 2026-05-05 09:21 | 46.31066 | 47.94346 | 34895 ft | 433 kts | 124° |
| 2026-05-05 09:21 | 46.28167 | 48.01899 | 34900 ft | 435 kts | 112° |
| 2026-05-05 09:22 | 46.26686 | 48.10408 | 34906 ft | 438 kts | 104° |
| 2026-05-05 09:22 | 46.25385 | 48.19002 | 34894 ft | 438 kts | 105° |
| 2026-05-05 09:23 | 46.24055 | 48.27596 | 34887 ft | 439 kts | 105° |
| 2026-05-05 09:23 | 46.22728 | 48.36156 | 34884 ft | 440 kts | 105° |
| 2026-05-05 09:24 | 46.21386 | 48.44777 | 34881 ft | 441 kts | 105° |
| 2026-05-05 09:24 | 46.19568 | 48.53146 | 34869 ft | 434 kts | 122° |
| 2026-05-05 09:24 | 46.17900 | 48.56740 | 34870 ft | 429 kts | 133° |
| 2026-05-05 09:25 | 46.15777 | 48.59724 | 34859 ft | 425 kts | 145° |
| 2026-05-05 09:25 | 46.13336 | 48.61972 | 34861 ft | 421 kts | 156° |
| 2026-05-05 09:25 | 46.10618 | 48.63482 | 34863 ft | 418 kts | 166° |
| 2026-05-05 09:26 | 46.05007 | 48.65727 | 34863 ft | 419 kts | 166° |
| 2026-05-05 09:26 | 45.99390 | 48.67979 | 34864 ft | 419 kts | 166° |
| 2026-05-05 09:27 | 45.93770 | 48.70241 | 34865 ft | 420 kts | 166° |
| 2026-05-05 09:27 | 45.88184 | 48.72484 | 34865 ft | 420 kts | 166° |
| 2026-05-05 09:28 | 45.82554 | 48.74729 | 34873 ft | 420 kts | 165° |
| 2026-05-05 09:28 | 45.76914 | 48.76980 | 34869 ft | 421 kts | 165° |
| 2026-05-05 09:29 | 45.71265 | 48.79232 | 34858 ft | 421 kts | 166° |
| 2026-05-05 09:29 | 45.65661 | 48.81460 | 34870 ft | 421 kts | 166° |
| 2026-05-05 09:30 | 45.60021 | 48.83695 | 34869 ft | 420 kts | 166° |
| 2026-05-05 09:30 | 45.54387 | 48.85931 | 34876 ft | 420 kts | 166° |
| 2026-05-05 09:31 | 45.48755 | 48.88161 | 34869 ft | 420 kts | 167° |
| 2026-05-05 09:31 | 45.43159 | 48.90357 | 34866 ft | 420 kts | 167° |
| 2026-05-05 09:32 | 45.37523 | 48.92566 | 34870 ft | 420 kts | 167° |
| 2026-05-05 09:32 | 45.31881 | 48.94779 | 34870 ft | 421 kts | 167° |
| 2026-05-05 09:33 | 45.26236 | 48.96994 | 34860 ft | 421 kts | 167° |
| 2026-05-05 09:33 | 45.20598 | 48.99200 | 34875 ft | 420 kts | 167° |
| 2026-05-05 09:34 | 45.15001 | 49.01387 | 34872 ft | 420 kts | 167° |
| 2026-05-05 09:34 | 45.09372 | 49.03578 | 34890 ft | 420 kts | 167° |
| 2026-05-05 09:35 | 45.03731 | 49.05759 | 34862 ft | 420 kts | 168° |
| 2026-05-05 09:35 | 44.95276 | 49.09041 | 34871 ft | 420 kts | 168° |
| 2026-05-05 09:36 | 44.89678 | 49.11209 | 34869 ft | 420 kts | 168° |
| 2026-05-05 09:36 | 44.84042 | 49.13381 | 34845 ft | 420 kts | 168° |
| 2026-05-05 09:37 | 44.78406 | 49.15555 | 34879 ft | 420 kts | 168° |
| 2026-05-05 09:37 | 44.72777 | 49.17709 | 34879 ft | 419 kts | 168° |
| 2026-05-05 09:38 | 44.67155 | 49.19856 | 34877 ft | 419 kts | 168° |
| 2026-05-05 09:38 | 44.61562 | 49.21995 | 34863 ft | 419 kts | 169° |
| 2026-05-05 09:39 | 44.55940 | 49.24146 | 34869 ft | 418 kts | 169° |
| 2026-05-05 09:39 | 44.50323 | 49.26289 | 34882 ft | 418 kts | 169° |
| 2026-05-05 09:40 | 44.44709 | 49.28430 | 34880 ft | 418 kts | 169° |
| 2026-05-05 09:40 | 44.39136 | 49.30545 | 34871 ft | 417 kts | 170° |
| 2026-05-05 09:41 | 44.33535 | 49.32660 | 34895 ft | 416 kts | 170° |
| 2026-05-05 09:41 | 44.27942 | 49.34773 | 34894 ft | 416 kts | 170° |
| 2026-05-05 09:42 | 44.22346 | 49.36880 | 34888 ft | 416 kts | 170° |
| 2026-05-05 09:42 | 44.16801 | 49.38964 | 34870 ft | 415 kts | 171° |
| 2026-05-05 09:43 | 44.11228 | 49.41055 | 34881 ft | 414 kts | 171° |
| 2026-05-05 09:43 | 44.05663 | 49.43144 | 34887 ft | 414 kts | 171° |
| 2026-05-05 09:44 | 44.00108 | 49.45224 | 34854 ft | 413 kts | 171° |
| 2026-05-05 09:44 | 43.94586 | 49.46868 | 34870 ft | 401 kts | 185° |
| 2026-05-05 09:45 | 43.91875 | 49.46333 | 34880 ft | 390 kts | 201° |
| 2026-05-05 09:45 | 43.89461 | 49.44714 | 34879 ft | 385 kts | 216° |
| 2026-05-05 09:45 | 43.87524 | 49.42179 | 34873 ft | 385 kts | 231° |
| 2026-05-05 09:45 | 43.86204 | 49.38917 | 34981 ft | 393 kts | 246° |
| 2026-05-05 09:46 | 43.85565 | 49.35192 | 35115 ft | 402 kts | 255° |
| 2026-05-05 09:46 | 43.85108 | 49.31370 | 35273 ft | 403 kts | 256° |
| 2026-05-05 09:46 | 43.84651 | 49.27531 | 35458 ft | 404 kts | 256° |
| 2026-05-05 09:46 | 43.84199 | 49.23741 | 35649 ft | 405 kts | 256° |
| 2026-05-05 09:47 | 43.83738 | 49.19893 | 35844 ft | 406 kts | 256° |
| 2026-05-05 09:47 | 43.83274 | 49.16039 | 35892 ft | 406 kts | 256° |
| 2026-05-05 09:47 | 43.82343 | 49.08325 | 35895 ft | 406 kts | 256° |
| 2026-05-05 09:48 | 43.81406 | 49.00627 | 35898 ft | 406 kts | 256° |
| 2026-05-05 09:48 | 43.80446 | 48.92894 | 35897 ft | 409 kts | 256° |
| 2026-05-05 09:49 | 43.79648 | 48.86435 | 35909 ft | 410 kts | 256° |
| 2026-05-05 09:50 | 43.76739 | 48.63093 | 35907 ft | 411 kts | 256° |
| 2026-05-05 09:51 | 43.75587 | 48.54047 | 35905 ft | 411 kts | 256° |
| 2026-05-05 09:51 | 43.74601 | 48.46258 | 35908 ft | 411 kts | 256° |
| 2026-05-05 09:52 | 43.73605 | 48.38475 | 35918 ft | 411 kts | 256° |
| 2026-05-05 09:52 | 43.72603 | 48.30690 | 35920 ft | 411 kts | 256° |
| 2026-05-05 09:53 | 43.71594 | 48.22967 | 35919 ft | 411 kts | 256° |
| 2026-05-05 09:53 | 43.70570 | 48.15182 | 35914 ft | 413 kts | 256° |
| 2026-05-05 09:54 | 43.69540 | 48.07364 | 35910 ft | 414 kts | 256° |
| 2026-05-05 09:54 | 43.68507 | 47.99524 | 35920 ft | 415 kts | 256° |
| 2026-05-05 09:55 | 43.67467 | 47.91716 | 35919 ft | 416 kts | 256° |
| 2026-05-05 09:55 | 43.66418 | 47.83846 | 35916 ft | 417 kts | 256° |
| 2026-05-05 09:56 | 43.65546 | 47.77296 | 35923 ft | 417 kts | 256° |
| 2026-05-05 09:56 | 43.65368 | 47.75965 | 35924 ft | 417 kts | 256° |
| 2026-05-05 09:57 | 43.62183 | 47.52631 | 35936 ft | 417 kts | 256° |
| 2026-05-05 09:58 | 43.61248 | 47.44726 | 35962 ft | 418 kts | 259° |
| 2026-05-05 09:58 | 43.60647 | 47.36718 | 35934 ft | 420 kts | 261° |
| 2026-05-05 09:59 | 43.60079 | 47.28681 | 35925 ft | 422 kts | 261° |
| 2026-05-05 09:59 | 43.59438 | 47.20682 | 35938 ft | 423 kts | 260° |
| 2026-05-05 10:00 | 43.58738 | 47.12635 | 35949 ft | 423 kts | 259° |
| 2026-05-05 10:00 | 43.58041 | 47.04588 | 35951 ft | 422 kts | 260° |
| 2026-05-05 10:01 | 43.57350 | 46.96541 | 35953 ft | 423 kts | 260° |
| 2026-05-05 10:01 | 43.56655 | 46.88492 | 35961 ft | 423 kts | 260° |
| 2026-05-05 10:02 | 43.55958 | 46.80499 | 35979 ft | 423 kts | 260° |
| 2026-05-05 10:02 | 43.55250 | 46.72445 | 35973 ft | 424 kts | 260° |
| 2026-05-05 10:03 | 43.54535 | 46.64380 | 35964 ft | 424 kts | 260° |
| 2026-05-05 10:03 | 43.53804 | 46.56306 | 35965 ft | 425 kts | 259° |
| 2026-05-05 10:04 | 43.53072 | 46.48230 | 35964 ft | 425 kts | 259° |
| 2026-05-05 10:04 | 43.52347 | 46.40201 | 35969 ft | 425 kts | 259° |
| 2026-05-05 10:05 | 43.51608 | 46.32121 | 35979 ft | 425 kts | 259° |
| 2026-05-05 10:05 | 43.50858 | 46.24051 | 35977 ft | 425 kts | 259° |
| 2026-05-05 10:06 | 43.50106 | 46.15980 | 35975 ft | 425 kts | 259° |
| 2026-05-05 10:06 | 43.49348 | 46.07962 | 35981 ft | 425 kts | 259° |
| 2026-05-05 10:07 | 43.49324 | 45.99800 | 35964 ft | 431 kts | 273° |
| 2026-05-05 10:07 | 43.50019 | 45.91596 | 35972 ft | 432 kts | 273° |
| 2026-05-05 10:08 | 43.50697 | 45.83376 | 35982 ft | 432 kts | 272° |
| 2026-05-05 10:08 | 43.51365 | 45.75203 | 35981 ft | 432 kts | 272° |
| 2026-05-05 10:09 | 43.52031 | 45.66969 | 35994 ft | 432 kts | 272° |
| 2026-05-05 10:09 | 43.52697 | 45.58730 | 35980 ft | 433 kts | 272° |
| 2026-05-05 10:10 | 43.53362 | 45.50469 | 35980 ft | 434 kts | 272° |
| 2026-05-05 10:10 | 43.54008 | 45.42248 | 35979 ft | 434 kts | 272° |
| 2026-05-05 10:11 | 43.54651 | 45.33970 | 35981 ft | 434 kts | 272° |
| 2026-05-05 10:11 | 43.55290 | 45.25701 | 35978 ft | 434 kts | 272° |
| 2026-05-05 10:12 | 43.55932 | 45.17419 | 35987 ft | 434 kts | 272° |
| 2026-05-05 10:12 | 43.56558 | 45.09178 | 35981 ft | 436 kts | 272° |
| 2026-05-05 10:13 | 43.57187 | 45.00873 | 35982 ft | 436 kts | 272° |
| 2026-05-05 10:13 | 43.57811 | 44.92570 | 35980 ft | 435 kts | 272° |
| 2026-05-05 10:14 | 43.58427 | 44.84267 | 35982 ft | 435 kts | 272° |
| 2026-05-05 10:14 | 43.59031 | 44.75960 | 35992 ft | 435 kts | 272° |
| 2026-05-05 10:15 | 43.59630 | 44.67693 | 35988 ft | 437 kts | 272° |
| 2026-05-05 10:15 | 43.60232 | 44.59351 | 35986 ft | 437 kts | 272° |
| 2026-05-05 10:16 | 43.60829 | 44.50998 | 35986 ft | 437 kts | 272° |
| 2026-05-05 10:16 | 43.61412 | 44.42638 | 35981 ft | 438 kts | 272° |
| 2026-05-05 10:17 | 43.61990 | 44.34330 | 35980 ft | 438 kts | 272° |
| 2026-05-05 10:17 | 43.62570 | 44.25959 | 35975 ft | 439 kts | 272° |
| 2026-05-05 10:18 | 43.63138 | 44.17564 | 35966 ft | 440 kts | 272° |
| 2026-05-05 10:18 | 43.63634 | 44.09148 | 35965 ft | 440 kts | 270° |
| 2026-05-05 10:19 | 43.63852 | 44.02146 | 35978 ft | 439 kts | 269° |
| 2026-05-05 10:19 | 43.64053 | 43.92352 | 35966 ft | 439 kts | 269° |
| 2026-05-05 10:20 | 43.64084 | 43.90930 | 35966 ft | 439 kts | 269° |